Terminal Aerodrome Forecast
Issued by NWS

Home | Current Version | Previous Version | Text Only | Print | Product List | Glossary On
Versions: 1 2 3 4 5 6 7 8 9 10 11 12 13 14 15 16
000
FTUS45 KREV 190632 AAA
TAFMMH
TAF AMD
KMMH 190632Z 1907/2006 19012KT 3SM -SN BKN011 BKN025 OVC040
     FM191200 22008G15KT 5SM -SHSN BKN025 OVC050
     FM200300 21007KT P6SM OVC100=

USA.gov is the U.S. government's official web portal to all federal, state and local government web resources and services.